sensor_id;sensor_type;location;lat;lon;timestamp;temperature;humidity
29007;DHT22;16104;48.642;9.008;2024-01-27T00:00:39;6.60;64.40
29007;DHT22;16104;48.642;9.008;2024-01-27T00:05:34;6.50;64.20
29007;DHT22;16104;48.642;9.008;2024-01-27T00:10:30;6.40;64.30
29007;DHT22;16104;48.642;9.008;2024-01-27T00:15:26;6.40;64.40
29007;DHT22;16104;48.642;9.008;2024-01-27T00:20:21;6.30;64.50
29007;DHT22;16104;48.642;9.008;2024-01-27T00:25:17;6.20;64.60
29007;DHT22;16104;48.642;9.008;2024-01-27T00:30:13;6.10;64.60
29007;DHT22;16104;48.642;9.008;2024-01-27T00:35:09;6.10;64.70
29007;DHT22;16104;48.642;9.008;2024-01-27T00:40:10;6.00;64.90
29007;DHT22;16104;48.642;9.008;2024-01-27T00:45:07;5.90;65.00
29007;DHT22;16104;48.642;9.008;2024-01-27T00:50:03;5.80;64.90
29007;DHT22;16104;48.642;9.008;2024-01-27T00:54:59;5.80;65.00
29007;DHT22;16104;48.642;9.008;2024-01-27T00:59:55;5.70;65.10
29007;DHT22;16104;48.642;9.008;2024-01-27T05:03:29;3.50;68.20
29007;DHT22;16104;48.642;9.008;2024-01-27T05:08:24;3.40;68.30
29007;DHT22;16104;48.642;9.008;2024-01-27T05:13:20;3.40;68.40
29007;DHT22;16104;48.642;9.008;2024-01-27T05:18:15;3.40;68.50
29007;DHT22;16104;48.642;9.008;2024-01-27T05:23:11;3.40;68.40
29007;DHT22;16104;48.642;9.008;2024-01-27T05:28:06;3.40;68.40
29007;DHT22;16104;48.642;9.008;2024-01-27T05:33:02;3.40;68.40
29007;DHT22;16104;48.642;9.008;2024-01-27T05:37:59;3.30;68.40
29007;DHT22;16104;48.642;9.008;2024-01-27T05:42:54;3.30;68.30
29007;DHT22;16104;48.642;9.008;2024-01-27T05:47:50;3.20;68.30
29007;DHT22;16104;48.642;9.008;2024-01-27T05:52:45;3.20;68.50
29007;DHT22;16104;48.642;9.008;2024-01-27T05:57:41;3.20;68.60
29007;DHT22;16104;48.642;9.008;2024-01-27T06:02:36;3.20;68.70
29007;DHT22;16104;48.642;9.008;2024-01-27T06:07:32;3.10;68.70
29007;DHT22;16104;48.642;9.008;2024-01-27T06:12:27;3.10;68.70
29007;DHT22;16104;48.642;9.008;2024-01-27T06:17:23;3.10;68.70
29007;DHT22;16104;48.642;9.008;2024-01-27T06:22:18;3.10;68.70
29007;DHT22;16104;48.642;9.008;2024-01-27T06:27:14;3.00;68.60
29007;DHT22;16104;48.642;9.008;2024-01-27T06:32:09;3.00;68.60
29007;DHT22;16104;48.642;9.008;2024-01-27T06:37:05;2.90;68.70
29007;DHT22;16104;48.642;9.008;2024-01-27T06:42:00;2.90;68.80
29007;DHT22;16104;48.642;9.008;2024-01-27T06:46:56;2.90;68.90
29007;DHT22;16104;48.642;9.008;2024-01-27T06:51:51;2.80;69.00
29007;DHT22;16104;48.642;9.008;2024-01-27T06:56:47;2.80;69.30
29007;DHT22;16104;48.642;9.008;2024-01-27T07:01:46;2.80;69.50
29007;DHT22;16104;48.642;9.008;2024-01-27T07:06:43;2.80;69.70
29007;DHT22;16104;48.642;9.008;2024-01-27T07:11:39;2.80;69.70
29007;DHT22;16104;48.642;9.008;2024-01-27T07:16:34;2.80;69.60
29007;DHT22;16104;48.642;9.008;2024-01-27T07:21:30;2.80;69.60
29007;DHT22;16104;48.642;9.008;2024-01-27T07:26:26;2.80;69.60
29007;DHT22;16104;48.642;9.008;2024-01-27T07:31:22;2.80;69.60
29007;DHT22;16104;48.642;9.008;2024-01-27T07:36:19;2.90;69.50
29007;DHT22;16104;48.642;9.008;2024-01-27T07:41:15;2.90;69.60
29007;DHT22;16104;48.642;9.008;2024-01-27T07:46:11;2.90;69.60
29007;DHT22;16104;48.642;9.008;2024-01-27T07:51:06;2.90;69.60
29007;DHT22;16104;48.642;9.008;2024-01-27T07:56:02;2.90;69.70
29007;DHT22;16104;48.642;9.008;2024-01-27T08:00:57;2.90;69.70
29007;DHT22;16104;48.642;9.008;2024-01-27T08:05:53;2.90;70.50
29007;DHT22;16104;48.642;9.008;2024-01-27T08:10:48;2.90;69.90
29007;DHT22;16104;48.642;9.008;2024-01-27T08:15:44;2.90;70.10
29007;DHT22;16104;48.642;9.008;2024-01-27T08:20:39;3.00;70.40
29007;DHT22;16104;48.642;9.008;2024-01-27T08:25:35;3.00;70.50
29007;DHT22;16104;48.642;9.008;2024-01-27T08:30:30;3.00;70.70
29007;DHT22;16104;48.642;9.008;2024-01-27T08:35:26;3.10;70.90
29007;DHT22;16104;48.642;9.008;2024-01-27T08:40:21;3.10;71.10
29007;DHT22;16104;48.642;9.008;2024-01-27T08:45:17;3.10;71.20
29007;DHT22;16104;48.642;9.008;2024-01-27T08:50:13;3.20;71.40
29007;DHT22;16104;48.642;9.008;2024-01-27T08:55:08;3.30;71.60
29007;DHT22;16104;48.642;9.008;2024-01-27T09:00:04;3.40;71.90
29007;DHT22;16104;48.642;9.008;2024-01-27T09:05:00;3.50;72.10
29007;DHT22;16104;48.642;9.008;2024-01-27T09:09:56;3.60;72.10
29007;DHT22;16104;48.642;9.008;2024-01-27T09:14:51;3.70;72.10
29007;DHT22;16104;48.642;9.008;2024-01-27T09:19:47;3.80;72.10
29007;DHT22;16104;48.642;9.008;2024-01-27T09:24:42;3.80;72.00
29007;DHT22;16104;48.642;9.008;2024-01-27T09:29:38;3.90;71.90
29007;DHT22;16104;48.642;9.008;2024-01-27T09:34:33;4.00;71.90
29007;DHT22;16104;48.642;9.008;2024-01-27T09:39:29;4.10;71.90
29007;DHT22;16104;48.642;9.008;2024-01-27T09:44:25;4.10;71.90
29007;DHT22;16104;48.642;9.008;2024-01-27T09:49:22;4.20;72.10
29007;DHT22;16104;48.642;9.008;2024-01-27T09:54:18;4.30;72.40
29007;DHT22;16104;48.642;9.008;2024-01-27T09:59:15;4.50;72.60
29007;DHT22;16104;48.642;9.008;2024-01-27T10:04:13;4.60;72.60
29007;DHT22;16104;48.642;9.008;2024-01-27T10:09:09;4.70;72.50
29007;DHT22;16104;48.642;9.008;2024-01-27T10:14:05;4.90;72.30
29007;DHT22;16104;48.642;9.008;2024-01-27T10:19:02;5.10;72.10
29007;DHT22;16104;48.642;9.008;2024-01-27T10:23:57;5.20;72.00
29007;DHT22;16104;48.642;9.008;2024-01-27T10:28:54;5.30;71.70
29007;DHT22;16104;48.642;9.008;2024-01-27T10:33:54;5.60;71.70
29007;DHT22;16104;48.642;9.008;2024-01-27T10:38:51;5.70;71.20
29007;DHT22;16104;48.642;9.008;2024-01-27T10:43:49;5.90;71.00
29007;DHT22;16104;48.642;9.008;2024-01-27T10:48:51;6.10;70.90
29007;DHT22;16104;48.642;9.008;2024-01-27T10:53:49;6.30;70.70
29007;DHT22;16104;48.642;9.008;2024-01-27T10:58:45;6.50;70.60
29007;DHT22;16104;48.642;9.008;2024-01-27T11:03:43;6.80;70.40
29007;DHT22;16104;48.642;9.008;2024-01-27T11:08:39;7.00;69.80
29007;DHT22;16104;48.642;9.008;2024-01-27T11:13:36;7.30;69.60
29007;DHT22;16104;48.642;9.008;2024-01-27T11:18:32;7.50;69.60
29007;DHT22;16104;48.642;9.008;2024-01-27T11:23:32;7.80;68.90
29007;DHT22;16104;48.642;9.008;2024-01-27T11:28:28;8.10;68.20
29007;DHT22;16104;48.642;9.008;2024-01-27T11:33:27;8.40;68.70
29007;DHT22;16104;48.642;9.008;2024-01-27T11:38:22;8.60;67.20
29007;DHT22;16104;48.642;9.008;2024-01-27T11:43:18;8.80;67.10
29007;DHT22;16104;48.642;9.008;2024-01-27T11:48:14;9.10;65.90
29007;DHT22;16104;48.642;9.008;2024-01-27T11:53:09;9.40;65.80
29007;DHT22;16104;48.642;9.008;2024-01-27T11:58:05;9.70;65.30
29007;DHT22;16104;48.642;9.008;2024-01-27T12:03:00;9.90;64.40
29007;DHT22;16104;48.642;9.008;2024-01-27T12:07:56;10.20;64.10
29007;DHT22;16104;48.642;9.008;2024-01-27T12:12:51;10.50;63.50
29007;DHT22;16104;48.642;9.008;2024-01-27T12:17:53;10.70;63.40
29007;DHT22;16104;48.642;9.008;2024-01-27T12:22:48;11.00;62.00
29007;DHT22;16104;48.642;9.008;2024-01-27T12:27:46;11.30;62.40
29007;DHT22;16104;48.642;9.008;2024-01-27T12:32:41;11.60;61.90
29007;DHT22;16104;48.642;9.008;2024-01-27T12:37:37;11.90;60.90
29007;DHT22;16104;48.642;9.008;2024-01-27T12:42:32;12.20;59.30
29007;DHT22;16104;48.642;9.008;2024-01-27T12:47:28;12.40;59.30
29007;DHT22;16104;48.642;9.008;2024-01-27T12:52:23;12.60;58.30
29007;DHT22;16104;48.642;9.008;2024-01-27T12:57:20;12.70;58.10
29007;DHT22;16104;48.642;9.008;2024-01-27T13:02:15;13.00;57.80
29007;DHT22;16104;48.642;9.008;2024-01-27T13:07:11;13.20;56.70
29007;DHT22;16104;48.642;9.008;2024-01-27T13:12:07;13.40;56.40
29007;DHT22;16104;48.642;9.008;2024-01-27T13:17:03;13.60;55.90
29007;DHT22;16104;48.642;9.008;2024-01-27T13:21:59;13.70;55.00
29007;DHT22;16104;48.642;9.008;2024-01-27T13:26:54;13.80;54.60
29007;DHT22;16104;48.642;9.008;2024-01-27T13:31:50;13.90;54.20
29007;DHT22;16104;48.642;9.008;2024-01-27T13:36:45;14.00;54.40
29007;DHT22;16104;48.642;9.008;2024-01-27T13:41:41;14.20;53.70
29007;DHT22;16104;48.642;9.008;2024-01-27T13:46:36;14.30;53.60
29007;DHT22;16104;48.642;9.008;2024-01-27T13:51:32;14.40;53.20
29007;DHT22;16104;48.642;9.008;2024-01-27T13:56:28;14.60;52.50
29007;DHT22;16104;48.642;9.008;2024-01-27T14:01:27;14.70;52.40
29007;DHT22;16104;48.642;9.008;2024-01-27T14:06:23;14.90;51.70
29007;DHT22;16104;48.642;9.008;2024-01-27T14:11:19;14.90;51.00
29007;DHT22;16104;48.642;9.008;2024-01-27T14:16:16;15.00;51.10
29007;DHT22;16104;48.642;9.008;2024-01-27T14:21:12;15.00;50.70
29007;DHT22;16104;48.642;9.008;2024-01-27T14:26:07;15.00;50.30
29007;DHT22;16104;48.642;9.008;2024-01-27T14:31:09;15.10;50.40
29007;DHT22;16104;48.642;9.008;2024-01-27T14:36:05;15.00;49.40
29007;DHT22;16104;48.642;9.008;2024-01-27T14:41:01;15.00;49.40
29007;DHT22;16104;48.642;9.008;2024-01-27T14:45:56;14.80;49.10
29007;DHT22;16104;48.642;9.008;2024-01-27T14:50:52;14.70;49.30
29007;DHT22;16104;48.642;9.008;2024-01-27T14:55:54;14.50;49.20
29007;DHT22;16104;48.642;9.008;2024-01-27T15:00:50;14.30;49.20
29007;DHT22;16104;48.642;9.008;2024-01-27T15:05:49;14.00;49.20
29007;DHT22;16104;48.642;9.008;2024-01-27T15:10:44;13.80;49.40
29007;DHT22;16104;48.642;9.008;2024-01-27T15:15:40;13.60;49.50
29007;DHT22;16104;48.642;9.008;2024-01-27T15:20:36;13.40;49.70
29007;DHT22;16104;48.642;9.008;2024-01-27T15:25:31;13.10;50.00
29007;DHT22;16104;48.642;9.008;2024-01-27T15:30:27;12.90;50.30
29007;DHT22;16104;48.642;9.008;2024-01-27T15:35:22;12.70;50.60
29007;DHT22;16104;48.642;9.008;2024-01-27T15:40:18;12.50;50.70
29007;DHT22;16104;48.642;9.008;2024-01-27T15:45:13;12.30;50.80
29007;DHT22;16104;48.642;9.008;2024-01-27T15:50:09;12.00;51.10
29007;DHT22;16104;48.642;9.008;2024-01-27T15:55:08;11.80;51.40
29007;DHT22;16104;48.642;9.008;2024-01-27T16:00:05;11.50;51.70
29007;DHT22;16104;48.642;9.008;2024-01-27T16:05:05;11.30;52.00
29007;DHT22;16104;48.642;9.008;2024-01-27T16:10:01;11.10;52.40
29007;DHT22;16104;48.642;9.008;2024-01-27T16:14:57;10.90;52.50
29007;DHT22;16104;48.642;9.008;2024-01-27T16:19:52;10.70;52.90
29007;DHT22;16104;48.642;9.008;2024-01-27T16:24:49;10.50;53.20
29007;DHT22;16104;48.642;9.008;2024-01-27T16:29:46;10.30;53.40
29007;DHT22;16104;48.642;9.008;2024-01-27T16:34:41;10.20;53.70
29007;DHT22;16104;48.642;9.008;2024-01-27T16:39:37;10.00;53.90
29007;DHT22;16104;48.642;9.008;2024-01-27T16:44:32;9.90;54.10
29007;DHT22;16104;48.642;9.008;2024-01-27T16:49:28;9.70;54.20
29007;DHT22;16104;48.642;9.008;2024-01-27T16:54:23;9.60;54.40
29007;DHT22;16104;48.642;9.008;2024-01-27T16:59:20;9.40;54.60
29007;DHT22;16104;48.642;9.008;2024-01-27T17:04:16;9.30;54.80
29007;DHT22;16104;48.642;9.008;2024-01-27T17:09:11;9.10;55.00
29007;DHT22;16104;48.642;9.008;2024-01-27T17:14:09;9.00;55.20
29007;DHT22;16104;48.642;9.008;2024-01-27T17:19:04;8.80;55.40
29007;DHT22;16104;48.642;9.008;2024-01-27T17:24:00;8.70;55.60
29007;DHT22;16104;48.642;9.008;2024-01-27T17:28:55;8.60;55.80
29007;DHT22;16104;48.642;9.008;2024-01-27T17:33:51;8.40;56.00
29007;DHT22;16104;48.642;9.008;2024-01-27T17:38:47;8.30;56.20
29007;DHT22;16104;48.642;9.008;2024-01-27T17:43:42;8.20;56.40
29007;DHT22;16104;48.642;9.008;2024-01-27T17:48:38;8.10;56.60
29007;DHT22;16104;48.642;9.008;2024-01-27T17:53:35;8.00;56.70
29007;DHT22;16104;48.642;9.008;2024-01-27T17:58:30;7.80;56.90
29007;DHT22;16104;48.642;9.008;2024-01-27T18:03:26;7.70;57.00
29007;DHT22;16104;48.642;9.008;2024-01-27T18:08:21;7.60;57.20
29007;DHT22;16104;48.642;9.008;2024-01-27T18:13:17;7.50;57.50
29007;DHT22;16104;48.642;9.008;2024-01-27T18:18:12;7.30;57.60
29007;DHT22;16104;48.642;9.008;2024-01-27T18:23:08;7.20;57.70
29007;DHT22;16104;48.642;9.008;2024-01-27T18:28:04;7.10;57.90
29007;DHT22;16104;48.642;9.008;2024-01-27T18:32:59;6.90;58.10
29007;DHT22;16104;48.642;9.008;2024-01-27T18:37:55;6.80;58.30
29007;DHT22;16104;48.642;9.008;2024-01-27T18:42:51;6.70;58.50
29007;DHT22;16104;48.642;9.008;2024-01-27T18:47:46;6.60;58.60
29007;DHT22;16104;48.642;9.008;2024-01-27T18:52:42;6.50;58.80
29007;DHT22;16104;48.642;9.008;2024-01-27T18:57:37;6.40;58.80
29007;DHT22;16104;48.642;9.008;2024-01-27T19:02:33;6.30;59.10
29007;DHT22;16104;48.642;9.008;2024-01-27T19:07:28;6.20;59.20
29007;DHT22;16104;48.642;9.008;2024-01-27T19:12:24;6.10;59.30
29007;DHT22;16104;48.642;9.008;2024-01-27T19:17:19;6.00;59.40
29007;DHT22;16104;48.642;9.008;2024-01-27T19:22:15;5.90;60.20
29007;DHT22;16104;48.642;9.008;2024-01-27T19:27:11;5.80;59.60
29007;DHT22;16104;48.642;9.008;2024-01-27T19:32:06;5.80;59.90
29007;DHT22;16104;48.642;9.008;2024-01-27T19:37:02;5.70;60.00
29007;DHT22;16104;48.642;9.008;2024-01-27T19:41:57;5.60;60.20
29007;DHT22;16104;48.642;9.008;2024-01-27T19:46:53;5.60;60.20
29007;DHT22;16104;48.642;9.008;2024-01-27T19:51:48;5.50;60.40
29007;DHT22;16104;48.642;9.008;2024-01-27T19:56:44;5.40;60.60
29007;DHT22;16104;48.642;9.008;2024-01-27T20:01:39;5.40;60.70
29007;DHT22;16104;48.642;9.008;2024-01-27T20:06:35;5.40;60.90
29007;DHT22;16104;48.642;9.008;2024-01-27T20:11:30;5.30;60.90
29007;DHT22;16104;48.642;9.008;2024-01-27T20:16:26;5.30;61.20
29007;DHT22;16104;48.642;9.008;2024-01-27T20:21:22;5.30;61.40
29007;DHT22;16104;48.642;9.008;2024-01-27T20:26:18;5.30;61.40
29007;DHT22;16104;48.642;9.008;2024-01-27T20:31:14;5.20;61.50
29007;DHT22;16104;48.642;9.008;2024-01-27T20:36:09;5.20;61.60
29007;DHT22;16104;48.642;9.008;2024-01-27T20:41:05;5.20;61.60
29007;DHT22;16104;48.642;9.008;2024-01-27T20:46:00;5.10;61.50
29007;DHT22;16104;48.642;9.008;2024-01-27T20:50:58;5.10;61.60
29007;DHT22;16104;48.642;9.008;2024-01-27T20:55:53;5.10;61.70
29007;DHT22;16104;48.642;9.008;2024-01-27T21:00:49;5.10;61.80
29007;DHT22;16104;48.642;9.008;2024-01-27T21:05:45;5.00;61.80
29007;DHT22;16104;48.642;9.008;2024-01-27T21:10:41;5.00;61.90
29007;DHT22;16104;48.642;9.008;2024-01-27T21:15:37;4.90;61.80
29007;DHT22;16104;48.642;9.008;2024-01-27T21:20:32;4.90;61.90
29007;DHT22;16104;48.642;9.008;2024-01-27T21:25:28;4.80;62.00
29007;DHT22;16104;48.642;9.008;2024-01-27T21:30:23;4.80;62.10
29007;DHT22;16104;48.642;9.008;2024-01-27T21:35:19;4.80;62.10
29007;DHT22;16104;48.642;9.008;2024-01-27T21:40:14;4.80;62.20
29007;DHT22;16104;48.642;9.008;2024-01-27T21:45:10;4.70;62.20
29007;DHT22;16104;48.642;9.008;2024-01-27T21:50:06;4.70;62.30
29007;DHT22;16104;48.642;9.008;2024-01-27T21:55:02;4.70;62.40
29007;DHT22;16104;48.642;9.008;2024-01-27T21:59:57;4.70;62.40
29007;DHT22;16104;48.642;9.008;2024-01-27T22:04:53;4.70;62.50
29007;DHT22;16104;48.642;9.008;2024-01-27T22:09:48;4.60;62.40
29007;DHT22;16104;48.642;9.008;2024-01-27T22:14:44;4.50;62.40
29007;DHT22;16104;48.642;9.008;2024-01-27T22:19:39;4.50;62.40
29007;DHT22;16104;48.642;9.008;2024-01-27T22:24:35;4.40;62.60
29007;DHT22;16104;48.642;9.008;2024-01-27T22:29:30;4.40;62.80
29007;DHT22;16104;48.642;9.008;2024-01-27T22:34:26;4.30;62.90
29007;DHT22;16104;48.642;9.008;2024-01-27T22:39:22;4.30;63.00
29007;DHT22;16104;48.642;9.008;2024-01-27T22:44:17;4.20;63.10
29007;DHT22;16104;48.642;9.008;2024-01-27T22:49:13;4.20;63.30
29007;DHT22;16104;48.642;9.008;2024-01-27T22:54:08;4.20;63.70
29007;DHT22;16104;48.642;9.008;2024-01-27T22:59:04;4.20;63.90
29007;DHT22;16104;48.642;9.008;2024-01-27T23:04:00;4.20;64.10
29007;DHT22;16104;48.642;9.008;2024-01-27T23:08:55;4.20;64.20
29007;DHT22;16104;48.642;9.008;2024-01-27T23:13:51;4.30;65.10
29007;DHT22;16104;48.642;9.008;2024-01-27T23:18:46;4.20;64.20
29007;DHT22;16104;48.642;9.008;2024-01-27T23:23:42;4.30;64.50
29007;DHT22;16104;48.642;9.008;2024-01-27T23:28:37;4.20;64.60
29007;DHT22;16104;48.642;9.008;2024-01-27T23:33:33;4.30;65.00
29007;DHT22;16104;48.642;9.008;2024-01-27T23:38:29;4.30;65.30
29007;DHT22;16104;48.642;9.008;2024-01-27T23:43:24;4.30;65.50
29007;DHT22;16104;48.642;9.008;2024-01-27T23:48:19;4.40;65.70
29007;DHT22;16104;48.642;9.008;2024-01-27T23:53:15;4.40;65.70
29007;DHT22;16104;48.642;9.008;2024-01-27T23:58:16;4.50;65.70
